createdAt,value
2023-03-26T00:02:07.120Z,70.83
2023-03-26T00:04:36.013Z,70.85
2023-03-26T00:07:05.308Z,70.86
2023-03-26T00:09:34.095Z,70.91
2023-03-26T00:12:03.244Z,70.95
2023-03-26T00:14:32.910Z,71.03
2023-03-26T00:17:02.720Z,71.17
2023-03-26T00:19:31.189Z,71.33
2023-03-26T00:22:00.909Z,71.45
2023-03-26T00:24:30.921Z,71.56
2023-03-26T00:26:59.984Z,71.65
2023-03-26T00:29:28.827Z,71.77
2023-03-26T00:31:57.691Z,71.84
2023-03-26T00:34:27.107Z,71.98
2023-03-26T00:36:56.238Z,72.13
2023-03-26T00:39:26.221Z,72.31
2023-03-26T00:41:55.748Z,72.46
2023-03-26T00:44:24.414Z,72.64
2023-03-26T00:46:53.716Z,72.73
2023-03-26T00:49:22.715Z,72.85
2023-03-26T00:51:51.408Z,72.98
2023-03-26T00:54:20.183Z,73.10
2023-03-26T00:56:48.907Z,73.28
2023-03-26T00:59:18.090Z,73.43
2023-03-26T01:01:47.506Z,73.63
2023-03-26T01:04:31.707Z,73.82
2023-03-26T01:07:10.360Z,73.90
2023-03-26T01:09:45.876Z,74.03
2023-03-26T01:12:18.720Z,74.13
2023-03-26T01:14:50.993Z,74.18
2023-03-26T01:17:19.929Z,74.20
2023-03-26T01:19:57.420Z,74.23
2023-03-26T01:22:27.734Z,74.21
2023-03-26T01:24:57.013Z,74.18
2023-03-26T01:27:47.361Z,74.20
2023-03-26T01:30:41.830Z,74.18
2023-03-26T01:33:30.531Z,74.19
2023-03-26T01:36:07.490Z,74.23
2023-03-26T01:39:00.643Z,74.21
2023-03-26T01:41:35.349Z,74.18
2023-03-26T01:44:15.609Z,74.18
2023-03-26T01:46:45.651Z,74.12
2023-03-26T01:49:14.201Z,74.07
2023-03-26T01:51:43.095Z,74.06
2023-03-26T01:54:20.048Z,74.04
2023-03-26T01:57:10.130Z,74.04
2023-03-26T02:00:16.782Z,74.05
2023-03-26T02:02:55.348Z,73.99
2023-03-26T02:05:37.760Z,74.02
2023-03-26T02:08:24.374Z,73.94
2023-03-26T02:10:57.690Z,73.86
2023-03-26T02:13:26.852Z,73.84
2023-03-26T02:16:06.799Z,73.80
2023-03-26T02:18:41.892Z,73.74
2023-03-26T02:21:20.449Z,73.67
2023-03-26T02:23:58.209Z,73.62
2023-03-26T02:26:26.803Z,73.56
2023-03-26T02:29:10.894Z,73.45
2023-03-26T02:31:40.459Z,73.30
2023-03-26T02:34:09.148Z,73.14
2023-03-26T02:36:39.100Z,73.04
2023-03-26T02:39:07.773Z,72.97
2023-03-26T02:41:41.049Z,72.93
2023-03-26T02:44:11.612Z,72.90
2023-03-26T02:46:58.930Z,72.95
2023-03-26T02:49:43.177Z,73.00
2023-03-26T02:52:17.405Z,73.00
2023-03-26T02:54:46.501Z,73.02
2023-03-26T02:57:20.518Z,73.06
2023-03-26T03:00:09.120Z,73.08
2023-03-26T03:02:40.742Z,73.08
2023-03-26T03:05:35.219Z,73.09
2023-03-26T03:08:24.464Z,73.05
2023-03-26T03:11:16.992Z,72.98
2023-03-26T03:13:51.459Z,73.00
2023-03-26T03:16:38.273Z,73.02
2023-03-26T03:19:13.545Z,72.93
2023-03-26T03:21:42.444Z,72.69
2023-03-26T03:24:14.353Z,72.50
2023-03-26T03:26:47.882Z,72.44
2023-03-26T03:29:36.809Z,72.36
2023-03-26T03:32:43.897Z,71.97
2023-03-26T03:35:13.096Z,71.74
2023-03-26T03:37:43.613Z,71.44
2023-03-26T03:40:13.228Z,71.14
2023-03-26T03:42:42.422Z,70.92
2023-03-26T03:45:11.722Z,70.87
2023-03-26T03:47:59.186Z,70.80
2023-03-26T03:50:37.873Z,70.72
2023-03-26T03:53:22.231Z,70.74
2023-03-26T03:55:57.631Z,70.68
2023-03-26T03:58:34.931Z,70.70
2023-03-26T04:01:11.343Z,70.49
2023-03-26T04:04:02.183Z,70.34
2023-03-26T04:06:46.796Z,70.43
2023-03-26T04:09:16.185Z,70.48
2023-03-26T04:11:46.427Z,70.48
2023-03-26T04:14:31.620Z,70.53
2023-03-26T04:17:05.700Z,70.39
2023-03-26T04:19:37.242Z,70.37
2023-03-26T04:22:10.928Z,70.42
2023-03-26T04:24:50.497Z,70.44
2023-03-26T04:27:43.545Z,70.32
2023-03-26T04:30:42.775Z,70.24
2023-03-26T04:33:40.420Z,70.32
2023-03-26T04:36:10.509Z,70.54
2023-03-26T04:38:45.671Z,70.84
2023-03-26T04:41:15.704Z,71.16
2023-03-26T04:43:50.882Z,71.41
2023-03-26T04:46:43.867Z,71.68
2023-03-26T04:49:27.242Z,71.88
2023-03-26T04:51:56.164Z,71.92
2023-03-26T04:54:47.024Z,71.93
2023-03-26T04:57:26.159Z,71.96
2023-03-26T05:00:16.738Z,71.98
2023-03-26T05:02:50.783Z,71.97
2023-03-26T05:05:20.462Z,72.04
2023-03-26T05:07:50.366Z,72.09
2023-03-26T05:10:20.837Z,72.17
2023-03-26T05:12:56.761Z,72.24
2023-03-26T05:15:31.705Z,72.39
2023-03-26T05:18:16.542Z,72.46
2023-03-26T05:20:49.075Z,72.54
2023-03-26T05:23:17.620Z,72.59
2023-03-26T05:26:03.841Z,72.65
2023-03-26T05:28:32.815Z,72.71
2023-03-26T05:31:08.398Z,72.73
2023-03-26T05:33:39.859Z,72.76
2023-03-26T05:36:15.670Z,72.84
2023-03-26T05:38:49.766Z,72.83
2023-03-26T05:41:41.299Z,72.90
2023-03-26T05:44:10.407Z,72.95
2023-03-26T05:46:39.202Z,72.92
2023-03-26T05:49:08.231Z,72.99
2023-03-26T05:51:40.661Z,73.02
2023-03-26T05:54:28.196Z,73.10
2023-03-26T05:57:24.112Z,73.23
2023-03-26T06:00:12.360Z,73.07
2023-03-26T06:02:48.283Z,72.84
2023-03-26T06:05:37.398Z,72.83
2023-03-26T06:08:12.084Z,72.82
2023-03-26T06:10:41.960Z,72.51
2023-03-26T06:13:10.794Z,72.24
2023-03-26T06:15:41.718Z,72.07
2023-03-26T06:18:25.712Z,71.88
2023-03-26T06:21:14.770Z,71.85
2023-03-26T06:23:51.973Z,71.81
2023-03-26T06:26:48.616Z,71.72
2023-03-26T06:29:36.092Z,71.65
2023-03-26T06:32:20.447Z,71.47
2023-03-26T06:35:12.421Z,71.33
2023-03-26T06:37:42.801Z,71.25
2023-03-26T06:40:13.677Z,71.14
2023-03-26T06:43:11.261Z,71.05
2023-03-26T06:46:21.455Z,70.32
2023-03-26T06:49:09.217Z,70.07
2023-03-26T06:51:55.285Z,70.23
2023-03-26T06:54:44.444Z,70.28
2023-03-26T06:57:32.841Z,70.05
2023-03-26T07:00:43.945Z,69.97
2023-03-26T07:03:32.287Z,70.12
2023-03-26T07:06:20.926Z,70.50
2023-03-26T07:09:09.094Z,70.77
2023-03-26T07:11:43.517Z,70.85
2023-03-26T07:14:39.157Z,70.89
2023-03-26T07:17:26.040Z,70.93
2023-03-26T07:20:01.696Z,70.37
2023-03-26T07:22:38.691Z,70.51
2023-03-26T07:25:36.875Z,70.21
2023-03-26T07:28:17.881Z,70.26
2023-03-26T07:31:22.771Z,70.31
2023-03-26T07:34:26.726Z,69.11
2023-03-26T07:37:41.095Z,69.13
2023-03-26T07:41:01.782Z,68.70
2023-03-26T07:44:11.899Z,68.00
2023-03-26T07:47:04.950Z,67.86
2023-03-26T07:49:43.754Z,68.05
2023-03-26T07:52:24.718Z,68.17
2023-03-26T07:55:16.445Z,68.12
2023-03-26T07:58:25.850Z,67.94
2023-03-26T08:01:44.596Z,67.36
2023-03-26T08:04:39.889Z,67.30
2023-03-26T08:07:52.035Z,67.22
2023-03-26T08:11:03.827Z,67.35
2023-03-26T08:14:04.181Z,67.34
2023-03-26T08:16:52.390Z,67.20
2023-03-26T08:19:38.919Z,66.09
2023-03-26T08:22:17.588Z,65.87
2023-03-26T08:25:25.863Z,65.77
2023-03-26T08:28:09.606Z,65.09
2023-03-26T08:30:42.087Z,63.95
2023-03-26T08:33:12.978Z,63.90
2023-03-26T08:35:42.903Z,63.94
2023-03-26T08:38:17.565Z,63.48
2023-03-26T08:40:58.638Z,63.31
2023-03-26T08:43:53.335Z,63.28
2023-03-26T08:46:36.270Z,63.18
2023-03-26T08:49:56.893Z,62.35
2023-03-26T08:52:35.243Z,62.32
2023-03-26T08:58:59.665Z,61.73
2023-03-26T09:01:47.016Z,61.50
2023-03-26T09:04:47.345Z,61.78
2023-03-26T09:08:01.918Z,61.81
2023-03-26T09:10:52.016Z,59.91
2023-03-26T09:13:57.408Z,60.32
2023-03-26T09:16:43.862Z,60.77
2023-03-26T09:19:47.914Z,60.63
2023-03-26T09:22:53.683Z,60.45
2023-03-26T09:26:00.457Z,60.01
2023-03-26T09:29:00.286Z,58.87
2023-03-26T09:31:59.854Z,60.18
2023-03-26T09:34:30.475Z,60.52
2023-03-26T09:37:14.986Z,60.39
2023-03-26T09:40:18.564Z,59.55
2023-03-26T09:43:16.343Z,59.15
2023-03-26T09:46:00.380Z,60.46
2023-03-26T09:48:46.386Z,61.02
2023-03-26T09:51:43.874Z,61.36
2023-03-26T09:54:51.499Z,61.36
2023-03-26T09:57:51.500Z,61.78
2023-03-26T10:00:37.076Z,61.17
2023-03-26T10:03:08.739Z,60.41
2023-03-26T10:05:57.772Z,60.25
2023-03-26T10:08:52.773Z,60.16
2023-03-26T10:11:43.093Z,60.36
2023-03-26T10:14:32.031Z,60.76
2023-03-26T10:17:17.201Z,60.54
2023-03-26T10:20:24.467Z,60.32
2023-03-26T10:23:16.059Z,60.38
2023-03-26T10:25:47.352Z,60.11
2023-03-26T10:28:25.261Z,60.17
2023-03-26T10:31:12.535Z,60.40
2023-03-26T10:33:53.768Z,60.15
2023-03-26T10:36:34.846Z,60.24
2023-03-26T10:39:37.637Z,60.17
2023-03-26T10:42:30.693Z,59.31
2023-03-26T10:45:34.067Z,58.81
2023-03-26T10:48:28.230Z,59.26
2023-03-26T10:51:17.737Z,59.33
2023-03-26T10:54:07.346Z,59.76
2023-03-26T10:56:49.963Z,60.11
2023-03-26T10:59:19.652Z,59.79
2023-03-26T11:02:19.972Z,58.20
2023-03-26T11:05:15.745Z,56.86
2023-03-26T11:08:33.767Z,56.97
2023-03-26T11:11:36.951Z,56.59
2023-03-26T11:14:33.799Z,55.99
2023-03-26T11:17:39.232Z,54.85
2023-03-26T11:20:39.136Z,53.33
2023-03-26T11:23:35.072Z,52.31
2023-03-26T11:26:30.797Z,51.81
2023-03-26T11:29:31.400Z,54.00
2023-03-26T11:32:03.898Z,55.61
2023-03-26T11:34:39.412Z,56.89
2023-03-26T11:37:19.302Z,57.48
2023-03-26T11:39:57.123Z,57.80
2023-03-26T11:42:29.192Z,57.65
2023-03-26T11:45:07.642Z,57.73
2023-03-26T11:47:48.377Z,57.30
2023-03-26T11:50:42.519Z,57.49
2023-03-26T11:53:18.270Z,58.46
2023-03-26T11:55:57.313Z,59.41
2023-03-26T11:58:39.705Z,59.21
2023-03-26T12:01:17.040Z,59.61
2023-03-26T12:03:59.146Z,59.12
2023-03-26T12:06:29.733Z,57.07
2023-03-26T12:08:59.645Z,56.55
2023-03-26T12:11:35.508Z,56.62
2023-03-26T12:14:06.644Z,56.58
2023-03-26T12:16:37.496Z,56.02
2023-03-26T12:19:22.472Z,55.99
2023-03-26T12:21:53.521Z,56.28
2023-03-26T12:24:29.657Z,56.75
2023-03-26T12:27:07.048Z,56.49
2023-03-26T12:29:36.997Z,56.39
2023-03-26T12:32:16.900Z,56.36
2023-03-26T12:34:48.261Z,56.26
2023-03-26T12:37:38.969Z,56.66
2023-03-26T12:40:25.731Z,56.41
2023-03-26T12:44:50.230Z,56.69
2023-03-26T12:47:26.465Z,56.44
2023-03-26T12:48:50.428Z,56.15
2023-03-26T12:51:32.186Z,55.44
2023-03-26T12:54:25.162Z,55.26
2023-03-26T12:57:20.688Z,55.32
2023-03-26T13:00:01.920Z,55.01
2023-03-26T13:03:00.647Z,54.93
2023-03-26T13:05:45.847Z,54.99
2023-03-26T13:08:58.584Z,55.10
2023-03-26T13:11:51.084Z,55.10
2023-03-26T13:14:35.334Z,54.80
2023-03-26T13:17:17.006Z,54.90
2023-03-26T13:20:12.890Z,55.20
2023-03-26T13:22:56.633Z,54.15
2023-03-26T13:25:38.568Z,53.81
2023-03-26T13:28:49.330Z,53.36
2023-03-26T13:31:34.752Z,53.40
2023-03-26T13:34:23.405Z,53.66
2023-03-26T13:37:21.489Z,53.99
2023-03-26T13:39:57.899Z,54.39
2023-03-26T13:43:11.180Z,54.39
2023-03-26T13:46:02.934Z,54.46
2023-03-26T13:48:42.543Z,54.66
2023-03-26T13:51:37.601Z,54.52
2023-03-26T13:54:17.648Z,54.06
2023-03-26T13:56:55.649Z,54.04
2023-03-26T13:59:50.573Z,54.09
2023-03-26T14:02:38.027Z,54.46
2023-03-26T14:05:17.960Z,54.75
2023-03-26T14:08:01.720Z,54.74
2023-03-26T14:10:36.857Z,54.85
2023-03-26T14:13:44.420Z,55.05
2023-03-26T14:16:21.166Z,55.01
2023-03-26T14:19:13.714Z,55.18
2023-03-26T14:22:14.507Z,55.06
2023-03-26T14:25:12.870Z,54.89
2023-03-26T14:28:04.714Z,55.09
2023-03-26T14:30:48.959Z,55.40
2023-03-26T14:33:48.677Z,55.18
2023-03-26T14:36:42.534Z,54.53
2023-03-26T14:39:19.254Z,54.31
2023-03-26T14:42:26.211Z,53.81
2023-03-26T14:45:48.851Z,53.81
2023-03-26T14:48:54.647Z,54.19
2023-03-26T14:51:52.993Z,54.20
2023-03-26T14:54:28.808Z,54.18
2023-03-26T14:57:28.570Z,54.26
2023-03-26T15:00:34.942Z,54.25
2023-03-26T15:03:10.131Z,54.53
2023-03-26T15:06:11.835Z,54.74
2023-03-26T15:09:25.398Z,55.11
2023-03-26T15:12:12.923Z,55.34
2023-03-26T15:15:20.499Z,55.63
2023-03-26T15:18:21.167Z,55.36
2023-03-26T15:21:12.029Z,54.92
2023-03-26T15:24:05.092Z,54.79
2023-03-26T15:27:11.988Z,54.81
2023-03-26T15:30:23.803Z,55.15
2023-03-26T15:33:38.849Z,55.56
2023-03-26T15:36:17.372Z,56.00
2023-03-26T15:38:59.248Z,56.32
2023-03-26T15:42:08.914Z,56.86
2023-03-26T15:44:54.354Z,57.99
2023-03-26T15:47:48.014Z,58.85
2023-03-26T15:50:51.600Z,59.34
2023-03-26T15:53:34.573Z,60.05
2023-03-26T15:56:53.352Z,60.04
2023-03-26T15:59:43.842Z,60.50
2023-03-26T16:02:38.260Z,60.84
2023-03-26T16:05:28.301Z,60.62
2023-03-26T16:08:39.624Z,60.44
2023-03-26T16:11:13.119Z,60.42
2023-03-26T16:13:49.994Z,60.43
2023-03-26T16:16:54.457Z,60.81
2023-03-26T16:19:24.839Z,60.77
2023-03-26T16:22:07.997Z,60.82
2023-03-26T16:24:42.887Z,60.61
2023-03-26T16:27:15.877Z,60.70
2023-03-26T16:30:10.614Z,60.81
2023-03-26T16:32:56.485Z,60.75
2023-03-26T16:35:40.689Z,60.82
2023-03-26T16:38:15.121Z,61.06
2023-03-26T16:41:15.846Z,61.39
2023-03-26T16:44:02.867Z,61.46
2023-03-26T16:46:59.221Z,61.60
2023-03-26T16:49:48.310Z,61.69
2023-03-26T16:52:59.145Z,61.76
2023-03-26T16:55:47.989Z,61.87
2023-03-26T16:58:28.113Z,62.25
2023-03-26T17:01:21.630Z,62.27
2023-03-26T17:03:59.351Z,62.22
2023-03-26T17:07:14.605Z,62.39
2023-03-26T17:10:02.200Z,62.24
2023-03-26T17:12:56.676Z,62.33
2023-03-26T17:15:52.288Z,62.21
2023-03-26T17:18:51.748Z,62.20
2023-03-26T17:21:47.087Z,62.29
2023-03-26T17:24:28.040Z,62.49
2023-03-26T17:27:48.098Z,62.58
2023-03-26T17:30:51.901Z,62.88
2023-03-26T17:33:27.900Z,63.12
2023-03-26T17:36:13.511Z,63.59
2023-03-26T17:38:47.996Z,64.14
2023-03-26T17:42:02.409Z,64.56
2023-03-26T17:44:43.120Z,65.15
2023-03-26T17:47:36.505Z,65.57
2023-03-26T17:50:20.342Z,65.90
2023-03-26T17:52:49.890Z,66.07
2023-03-26T17:55:31.530Z,66.11
2023-03-26T17:58:04.223Z,66.22
2023-03-26T18:00:43.846Z,66.28
2023-03-26T18:03:31.281Z,66.41
2023-03-26T18:06:33.214Z,66.48
2023-03-26T18:09:17.895Z,66.62
2023-03-26T18:11:51.265Z,66.68
2023-03-26T18:14:29.129Z,66.93
2023-03-26T18:17:00.878Z,67.12
2023-03-26T18:19:46.170Z,67.30
2023-03-26T18:22:26.941Z,67.50
2023-03-26T18:25:00.627Z,67.75
2023-03-26T18:27:38.754Z,67.90
2023-03-26T18:30:17.129Z,68.14
2023-03-26T18:33:14.046Z,68.32
2023-03-26T18:35:52.299Z,68.47
2023-03-26T18:38:36.780Z,68.69
2023-03-26T18:41:31.916Z,68.86
2023-03-26T18:44:06.451Z,69.03
2023-03-26T18:46:36.162Z,69.21
2023-03-26T18:49:06.794Z,69.30
2023-03-26T18:51:46.356Z,69.45
2023-03-26T18:54:21.779Z,69.52
2023-03-26T18:56:52.472Z,69.73
2023-03-26T18:59:29.821Z,69.83
2023-03-26T19:02:14.348Z,69.93
2023-03-26T19:04:47.076Z,70.02
2023-03-26T19:07:22.693Z,70.32
2023-03-26T19:09:56.585Z,70.41
2023-03-26T19:12:33.505Z,70.61
2023-03-26T19:15:12.644Z,70.59
2023-03-26T19:17:57.217Z,70.70
2023-03-26T19:20:32.389Z,70.72
2023-03-26T19:23:05.613Z,70.88
2023-03-26T19:25:49.001Z,70.94
2023-03-26T19:28:28.841Z,70.94
2023-03-26T19:31:10.849Z,70.97
2023-03-26T19:33:44.581Z,70.85
2023-03-26T19:36:18.269Z,70.93
2023-03-26T19:38:53.612Z,70.85
2023-03-26T19:41:26.974Z,70.98
2023-03-26T19:44:01.510Z,71.14
2023-03-26T19:46:53.940Z,71.23
2023-03-26T19:49:48.386Z,71.09
2023-03-26T19:52:27.389Z,71.14
2023-03-26T19:55:12.673Z,71.14
2023-03-26T19:57:43.527Z,71.20
2023-03-26T20:00:16.590Z,71.41
2023-03-26T20:02:48.125Z,71.72
2023-03-26T20:05:23.814Z,71.95
2023-03-26T20:07:58.224Z,72.06
2023-03-26T20:10:28.732Z,72.12
2023-03-26T20:12:59.970Z,72.22
2023-03-26T20:15:33.841Z,72.35
2023-03-26T20:18:04.545Z,72.36
2023-03-26T20:20:34.874Z,72.35
2023-03-26T20:23:04.245Z,72.24
2023-03-26T20:25:35.397Z,72.12
2023-03-26T20:28:04.691Z,71.74
2023-03-26T20:30:37.715Z,71.72
2023-03-26T20:33:16.988Z,71.88
2023-03-26T20:35:46.991Z,72.11
2023-03-26T20:38:17.048Z,72.42
2023-03-26T20:40:49.510Z,72.57
2023-03-26T20:43:24.586Z,72.72
2023-03-26T20:45:54.419Z,72.92
2023-03-26T20:48:27.371Z,72.96
2023-03-26T20:50:58.183Z,73.21
2023-03-26T20:53:28.625Z,73.41
2023-03-26T20:55:58.143Z,73.43
2023-03-26T20:58:31.517Z,73.43
2023-03-26T21:01:02.614Z,73.43
2023-03-26T21:03:31.778Z,73.41
2023-03-26T21:06:10.715Z,73.42
2023-03-26T21:08:43.747Z,73.28
2023-03-26T21:11:34.891Z,73.12
2023-03-26T21:14:15.950Z,73.09
2023-03-26T21:16:49.237Z,73.10
2023-03-26T21:19:18.561Z,73.38
2023-03-26T21:22:17.262Z,73.48
2023-03-26T21:25:15.936Z,73.34
2023-03-26T21:27:52.266Z,73.23
2023-03-26T21:30:22.477Z,73.37
2023-03-26T21:32:51.554Z,73.56
2023-03-26T21:35:20.795Z,73.70
2023-03-26T21:37:49.762Z,73.81
2023-03-26T21:40:22.005Z,73.88
2023-03-26T21:42:55.898Z,73.86
2023-03-26T21:45:24.867Z,73.71
2023-03-26T21:47:53.878Z,73.92
2023-03-26T21:50:23.825Z,74.04
2023-03-26T21:52:52.901Z,74.18
2023-03-26T21:55:24.142Z,74.17
2023-03-26T21:58:02.148Z,74.15
2023-03-26T22:00:54.936Z,74.10
2023-03-26T22:03:47.536Z,74.27
2023-03-26T22:06:24.791Z,74.42
2023-03-26T22:08:53.602Z,74.51
2023-03-26T22:11:25.680Z,74.70
2023-03-26T22:13:57.427Z,74.83
2023-03-26T22:16:26.028Z,74.91
2023-03-26T22:18:55.007Z,75.01
2023-03-26T22:21:23.700Z,74.99
2023-03-26T22:23:53.383Z,74.95
2023-03-26T22:26:24.089Z,74.98
2023-03-26T22:28:53.822Z,74.58
2023-03-26T22:31:22.659Z,74.74
2023-03-26T22:33:51.212Z,74.74
2023-03-26T22:36:22.141Z,74.81
2023-03-26T22:38:54.339Z,74.63
2023-03-26T22:41:23.653Z,74.48
2023-03-26T22:43:56.861Z,74.38
2023-03-26T22:46:26.855Z,74.53
2023-03-26T22:48:57.869Z,74.50
2023-03-26T22:51:28.198Z,74.74
2023-03-26T22:53:57.306Z,74.82
2023-03-26T22:56:25.986Z,74.91
2023-03-26T22:58:54.764Z,74.95
2023-03-26T23:01:25.256Z,75.19
2023-03-26T23:03:55.133Z,75.47
2023-03-26T23:06:23.691Z,75.71
2023-03-26T23:08:52.395Z,76.05
2023-03-26T23:11:22.318Z,76.48
2023-03-26T23:13:52.018Z,76.84
2023-03-26T23:16:21.836Z,77.05
2023-03-26T23:18:54.101Z,77.26
2023-03-26T23:21:25.845Z,77.44
2023-03-26T23:23:54.744Z,77.62
2023-03-26T23:26:24.344Z,77.78
2023-03-26T23:28:53.040Z,77.79
2023-03-26T23:31:22.257Z,77.74
2023-03-26T23:33:51.023Z,77.73
2023-03-26T23:36:21.181Z,77.72
2023-03-26T23:38:51.736Z,77.85
2023-03-26T23:41:23.523Z,78.01
2023-03-26T23:43:55.695Z,78.25
2023-03-26T23:46:31.080Z,78.42
2023-03-26T23:49:02.647Z,78.46
2023-03-26T23:51:32.692Z,78.52
2023-03-26T23:54:02.543Z,78.95
2023-03-26T23:56:32.117Z,79.00
2023-03-26T23:59:00.914Z,79.00
